Time;durP1;ratioP1;P1;durP2;ratioP2;P2;SDS_P1;SDS_P2;PMS_P1;PMS_P2;Temp;Humidity;BMP_temperature;BMP_pressure;BME280_temperature;BME280_humidity;BME280_pressure;Samples;Min_cycle;Max_cycle;Signal;HPM_P1;HPM_P2
2024/03/01 00:00:04;;;;;;;35.20;12.83;;;;;;;;;;5040078;28;20191;-57
2024/03/01 00:02:29;;;;;;;25.07;10.97;;;;;;;;;;5041214;28;20281;-55
2024/03/01 00:04:55;;;;;;;32.47;12.33;;;;;;;;;;5038522;28;20195;-56
2024/03/01 00:07:22;;;;;;;28.90;11.60;;;;;;;;;;5035585;28;20663;-58
2024/03/01 00:09:47;;;;;;;33.63;12.10;;;;;;;;;;5052882;28;20187;-54
2024/03/01 00:12:13;;;;;;;27.63;11.07;;;;;;;;;;5044728;28;20758;-53
2024/03/01 00:14:39;;;;;;;28.13;11.23;;;;;;;;;;5044936;28;20222;-57
2024/03/01 00:17:05;;;;;;;29.60;11.43;;;;;;;;;;5045777;28;20188;-53
2024/03/01 00:19:31;;;;;;;26.77;11.63;;;;;;;;;;5041660;28;20191;-57
2024/03/01 00:21:57;;;;;;;30.83;11.80;;;;;;;;;;5039111;28;20230;-58
2024/03/01 00:24:23;;;;;;;27.40;11.10;;;;;;;;;;5035149;28;20199;-59
2024/03/01 00:26:49;;;;;;;25.77;11.07;;;;;;;;;;5037277;28;20191;-59
2024/03/01 00:29:15;;;;;;;24.47;11.63;;;;;;;;;;5044133;28;20269;-54
2024/03/01 00:31:41;;;;;;;29.97;11.50;;;;;;;;;;5033243;28;20231;-57
2024/03/01 00:34:07;;;;;;;28.60;12.57;;;;;;;;;;5032628;28;20208;-58
2024/03/01 00:36:33;;;;;;;29.67;12.83;;;;;;;;;;5042948;28;20183;-59
2024/03/01 00:38:59;;;;;;;26.53;12.27;;;;;;;;;;5037948;28;20227;-58
2024/03/01 00:41:25;;;;;;;29.23;12.17;;;;;;;;;;5041892;28;20269;-59
2024/03/01 00:43:51;;;;;;;25.93;12.07;;;;;;;;;;5044132;28;20544;-54
2024/03/01 00:46:17;;;;;;;29.77;12.10;;;;;;;;;;5052325;28;20236;-58
2024/03/01 00:48:43;;;;;;;30.80;12.83;;;;;;;;;;5040295;28;20655;-57
2024/03/01 00:51:09;;;;;;;32.90;12.27;;;;;;;;;;5040956;28;20218;-59
2024/03/01 00:53:35;;;;;;;31.13;12.33;;;0.30;99.90;;;;;;5034618;28;20215;-57
2024/03/01 00:56:00;;;;;;;30.17;12.43;;;-0.50;99.90;;;;;;5043990;28;20685;-59
2024/03/01 00:58:26;;;;;;;30.17;13.20;;;-0.50;99.90;;;;;;5034007;28;20610;-59
2024/03/01 01:00:52;;;;;;;28.43;12.33;;;-0.60;99.90;;;;;;5032646;28;20180;-59
2024/03/01 01:03:17;;;;;;;37.03;12.97;;;-0.50;99.90;;;;;;5040637;28;20254;-58
2024/03/01 01:05:43;;;;;;;28.40;12.67;;;-0.50;99.90;;;;;;5044328;28;20195;-59
2024/03/01 01:08:09;;;;;;;27.10;12.70;;;-0.50;99.90;;;;;;5036764;28;20194;-59
2024/03/01 01:10:35;;;;;;;31.90;12.03;;;-0.50;99.90;;;;;;5039946;28;20202;-57
2024/03/01 01:13:00;;;;;;;34.20;12.70;;;-0.40;99.90;;;;;;5032342;28;20211;-57
2024/03/01 01:15:26;;;;;;;25.40;11.87;;;-0.60;99.90;;;;;;5041772;28;20662;-58
2024/03/01 01:17:51;;;;;;;29.70;12.33;;;-0.60;99.90;;;;;;5046701;28;20707;-58
2024/03/01 01:20:17;;;;;;;32.93;11.83;;;-0.50;99.90;;;;;;5032284;28;20188;-56
2024/03/01 01:22:43;;;;;;;31.17;12.40;;;-0.40;99.90;;;;;;5040465;28;20222;-58
2024/03/01 01:25:08;;;;;;;30.57;12.10;;;-0.50;99.90;;;;;;5047559;28;20282;-57
2024/03/01 01:27:34;;;;;;;27.30;11.77;;;-0.50;99.90;;;;;;5034885;28;20287;-56
2024/03/01 01:29:59;;;;;;;28.37;12.23;;;-0.60;99.90;;;;;;5043876;28;20650;-57
2024/03/01 01:32:25;;;;;;;31.20;12.33;;;-0.60;99.90;;;;;;5050556;28;20226;-58
2024/03/01 01:34:50;;;;;;;25.03;11.03;;;-0.60;99.90;;;;;;5031913;28;20191;-58
2024/03/01 01:37:16;;;;;;;30.33;12.33;;;-0.60;99.90;;;;;;5039277;28;20220;-57
2024/03/01 01:39:42;;;;;;;25.80;12.13;;;-0.60;99.90;;;;;;5031676;28;20310;-56
2024/03/01 01:42:08;;;;;;;24.30;10.60;;;-0.60;99.90;;;;;;5031907;28;20567;-57
2024/03/01 01:44:33;;;;;;;26.87;11.40;;;-0.50;99.90;;;;;;5031167;28;20223;-56
2024/03/01 01:46:59;;;;;;;26.60;11.70;;;-0.60;99.90;;;;;;5031073;28;20498;-56
2024/03/01 01:49:26;;;;;;;30.53;11.23;;;-0.70;99.90;;;;;;5030632;28;20333;-56
2024/03/01 01:51:52;;;;;;;30.10;11.27;;;-0.80;99.90;;;;;;5036382;28;20248;-56
2024/03/01 01:54:18;;;;;;;28.73;11.63;;;-0.80;99.90;;;;;;5042630;28;20207;-57
2024/03/01 01:56:45;;;;;;;28.53;11.67;;;-0.90;99.90;;;;;;5042989;28;20199;-55
2024/03/01 01:59:13;;;;;;;28.30;11.27;;;-0.90;99.90;;;;;;5035193;28;20199;-56
2024/03/01 02:01:41;;;;;;;35.70;13.00;;;-0.90;99.90;;;;;;5050407;28;20187;-53
2024/03/01 02:04:06;;;;;;;32.67;12.73;;;-0.80;99.90;;;;;;5036364;28;20196;-56
2024/03/01 02:06:32;;;;;;;33.20;13.00;;;-0.80;99.90;;;;;;5047252;28;20718;-57
2024/03/01 02:08:58;;;;;;;31.93;13.47;;;-0.70;99.90;;;;;;5038928;28;20191;-56
2024/03/01 02:11:24;;;;;;;29.63;12.20;;;-0.70;99.90;;;;;;5030636;28;20271;-53
2024/03/01 02:13:56;;;;;;;29.80;13.03;;;-0.70;99.90;;;;;;5030816;28;20310;-54
2024/03/01 02:16:23;;;;;;;32.23;13.03;;;-0.80;99.90;;;;;;5038740;28;20190;-54
2024/03/01 02:18:50;;;;;;;35.87;13.23;;;-0.90;99.90;;;;;;5030112;28;20188;-57
2024/03/01 02:21:21;;;;;;;28.90;12.40;;;-1.00;99.90;;;;;;5038911;28;20191;-54
2024/03/01 02:23:47;;;;;;;32.03;12.33;;;-1.00;99.90;;;;;;5037737;28;20273;-56
2024/03/01 02:26:13;;;;;;;33.73;13.13;;;-1.00;99.90;;;;;;5039026;28;20647;-58
2024/03/01 02:28:45;;;;;;;31.03;13.03;;;-1.00;99.90;;;;;;5029908;28;20192;-57
2024/03/01 02:31:12;;;;;;;29.87;13.07;;;-1.00;99.90;;;;;;5030481;28;20609;-57
2024/03/01 02:33:37;;;;;;;33.50;12.93;;;-1.10;99.90;;;;;;5038375;28;20222;-53
2024/03/01 02:36:04;;;;;;;37.93;14.33;;;-1.10;99.90;;;;;;5012823;28;20184;-54
2024/03/01 02:38:30;;;;;;;30.97;12.37;;;-1.10;99.90;;;;;;5029798;28;20573;-56
2024/03/01 02:40:55;;;;;;;31.50;12.50;;;-1.10;99.90;;;;;;5038382;28;20215;-56
2024/03/01 02:43:21;;;;;;;30.77;13.17;;;-1.10;99.90;;;;;;5038228;28;20292;-56
2024/03/01 02:45:46;;;;;;;36.00;13.53;;;-1.10;99.90;;;;;;5030022;28;20638;-56
2024/03/01 02:48:12;;;;;;;30.90;12.33;;;-1.10;99.90;;;;;;5045120;28;20183;-56
2024/03/01 02:50:37;;;;;;;30.13;12.70;;;-1.00;99.90;;;;;;5039328;28;20257;-54
2024/03/01 02:53:03;;;;;;;35.67;13.90;;;-1.00;99.90;;;;;;5044333;28;20690;-54
2024/03/01 02:55:29;;;;;;;36.57;13.97;;;-1.10;99.90;;;;;;5040012;28;20651;-57
2024/03/01 02:57:56;;;;;;;32.23;13.23;;;-1.00;99.90;;;;;;5037768;28;20195;-57
2024/03/01 03:00:22;;;;;;;36.10;12.87;;;-0.90;99.90;;;;;;5029681;28;20735;-54
2024/03/01 03:02:48;;;;;;;32.33;12.30;;;-0.70;99.90;;;;;;5033740;28;20244;-58
2024/03/01 03:05:14;;;;;;;35.27;13.30;;;-0.70;99.90;;;;;;5034073;28;20573;-55
2024/03/01 03:07:39;;;;;;;36.50;14.03;;;-0.60;99.90;;;;;;5029370;28;20270;-57
2024/03/01 03:10:06;;;;;;;35.37;13.67;;;-0.60;99.90;;;;;;5036367;28;20183;-55
2024/03/01 03:12:32;;;;;;;28.73;12.27;;;-0.50;99.90;;;;;;5032880;28;20207;-54
2024/03/01 03:15:00;;;;;;;31.40;13.00;;;-0.40;99.90;;;;;;5035992;28;20183;-57
2024/03/01 03:17:26;;;;;;;30.00;12.93;;;-0.40;99.90;;;;;;5038216;28;20322;-57
2024/03/01 03:19:52;;;;;;;35.13;13.23;;;-0.30;99.90;;;;;;5037081;28;20195;-56
2024/03/01 03:22:18;;;;;;;32.40;13.03;;;-0.20;99.90;;;;;;5037900;28;20739;-55
2024/03/01 03:24:43;;;;;;;30.70;13.13;;;-0.10;99.90;;;;;;5029540;28;20615;-55
2024/03/01 03:27:09;;;;;;;28.63;12.23;;;0.00;99.90;;;;;;5037296;28;20184;-58
2024/03/01 03:29:35;;;;;;;30.30;13.17;;;0.00;99.90;;;;;;5029362;28;20187;-59
2024/03/01 03:32:01;;;;;;;30.17;12.43;;;0.00;99.90;;;;;;5043624;28;20201;-56
2024/03/01 03:34:27;;;;;;;35.60;14.47;;;0.10;99.90;;;;;;5040983;28;20749;-55
2024/03/01 03:36:52;;;;;;;30.93;13.10;;;0.10;99.90;;;;;;5046272;28;20181;-54
2024/03/01 03:39:18;;;;;;;32.50;13.43;;;0.00;99.90;;;;;;5036604;28;20207;-58
2024/03/01 03:41:43;;;;;;;30.27;12.50;;;0.10;99.90;;;;;;5044910;28;20183;-58
2024/03/01 03:44:09;;;;;;;29.93;13.63;;;0.00;99.90;;;;;;5046405;28;20246;-54
2024/03/01 03:46:35;;;;;;;33.30;13.47;;;0.00;99.90;;;;;;5049641;28;20294;-54
2024/03/01 03:49:07;;;;;;;35.20;13.13;;;0.00;99.90;;;;;;5039120;28;20186;-53
2024/03/01 03:51:33;;;;;;;26.73;11.50;;;0.00;99.90;;;;;;5035237;28;20191;-54
2024/03/01 03:53:58;;;;;;;30.53;13.10;;;-0.10;99.90;;;;;;5041332;28;20203;-56
2024/03/01 03:56:24;;;;;;;31.57;12.13;;;-0.20;99.90;;;;;;5031660;28;20210;-56
2024/03/01 03:58:51;;;;;;;34.83;13.03;;;-0.30;99.90;;;;;;5045097;28;20728;-56
2024/03/01 04:01:16;;;;;;;32.33;13.30;;;-0.30;99.90;;;;;;5037314;28;20183;-55
2024/03/01 04:03:42;;;;;;;28.83;12.57;;;-0.20;99.90;;;;;;5041242;28;20667;-59
2024/03/01 04:06:08;;;;;;;32.63;13.73;;;-0.10;99.90;;;;;;5041449;28;20191;-57
2024/03/01 04:08:39;;;;;;;31.30;14.00;;;-0.10;99.90;;;;;;5032525;28;20572;-58
2024/03/01 04:11:06;;;;;;;34.40;13.50;;;0.00;99.90;;;;;;5039236;28;20229;-57
2024/03/01 04:13:32;;;;;;;32.13;13.67;;;0.10;99.90;;;;;;5045052;28;20226;-56
2024/03/01 04:15:59;;;;;;;32.03;13.90;;;0.10;99.90;;;;;;5038973;28;20234;-58
2024/03/01 04:18:27;;;;;;;33.33;13.30;;;0.10;99.90;;;;;;5040689;28;20188;-59
2024/03/01 04:20:57;;;;;;;32.60;13.20;;;0.00;99.90;;;;;;5015527;28;20226;-59
2024/03/01 04:23:24;;;;;;;33.37;13.80;;;0.00;99.90;;;;;;5032637;28;20203;-58
2024/03/01 04:25:51;;;;;;;27.83;13.13;;;0.10;99.90;;;;;;5032494;28;20194;-55
2024/03/01 04:28:20;;;;;;;32.60;13.10;;;0.10;99.90;;;;;;5032524;28;20333;-59
2024/03/01 04:30:46;;;;;;;33.23;13.37;;;-0.10;99.90;;;;;;5041356;28;20183;-59
2024/03/01 04:33:12;;;;;;;34.80;14.47;;;-0.10;99.90;;;;;;5039843;28;20729;-59
2024/03/01 04:35:39;;;;;;;29.00;12.87;;;-0.10;99.90;;;;;;5041789;28;20682;-57
2024/03/01 04:38:08;;;;;;;35.33;13.30;;;0.00;99.90;;;;;;5031927;28;20180;-58
2024/03/01 04:40:34;;;;;;;34.73;14.33;;;0.00;99.90;;;;;;5040575;28;20188;-57
2024/03/01 04:42:59;;;;;;;32.57;13.77;;;0.00;99.90;;;;;;5037834;28;20226;-57
2024/03/01 04:45:28;;;;;;;34.67;13.87;;;0.20;99.90;;;;;;5034933;28;20226;-59
2024/03/01 04:47:53;;;;;;;40.47;14.00;;;0.20;99.90;;;;;;5036742;28;20183;-59
2024/03/01 04:50:19;;;;;;;39.80;14.50;;;0.20;99.90;;;;;;5036063;28;20244;-57
2024/03/01 04:52:45;;;;;;;33.70;14.33;;;0.20;99.90;;;;;;5052061;28;20234;-58
2024/03/01 04:55:11;;;;;;;37.63;15.33;;;0.30;99.90;;;;;;5043858;28;20218;-57
2024/03/01 04:57:36;;;;;;;36.43;14.87;;;0.30;99.90;;;;;;5041164;28;20187;-56
2024/03/01 05:00:11;;;;;;;41.53;15.07;;;0.30;99.90;;;;;;5040649;28;20665;-59
2024/03/01 05:02:43;;;;;;;40.13;16.67;;;0.40;99.90;;;;;;5040514;28;20214;-59
2024/03/01 05:05:14;;;;;;;42.03;15.70;;;0.50;99.90;;;;;;5039075;28;20567;-59
2024/03/01 05:07:40;;;;;;;39.47;15.23;;;0.60;99.90;;;;;;5040388;28;20211;-59
2024/03/01 05:10:10;;;;;;;39.53;16.07;;;0.70;99.90;;;;;;5032479;28;20255;-57
2024/03/01 05:12:36;;;;;;;38.23;15.30;;;0.70;99.90;;;;;;5031971;28;20687;-58
2024/03/01 05:15:04;;;;;;;36.73;15.73;;;0.70;99.90;;;;;;5045845;28;20296;-58
2024/03/01 05:17:31;;;;;;;38.00;15.70;;;0.80;99.90;;;;;;5050998;28;20211;-58
2024/03/01 05:19:57;;;;;;;39.00;15.03;;;1.00;99.90;;;;;;5038694;28;20180;-57
2024/03/01 05:22:23;;;;;;;38.77;15.57;;;0.90;99.90;;;;;;5039803;28;20207;-57
2024/03/01 05:24:49;;;;;;;36.80;15.57;;;1.00;99.90;;;;;;5031838;28;20188;-57
2024/03/01 05:27:15;;;;;;;39.33;15.00;;;1.00;99.90;;;;;;5031082;28;20195;-57
2024/03/01 05:29:41;;;;;;;40.77;16.77;;;1.10;99.90;;;;;;5042668;28;20191;-58
2024/03/01 05:32:06;;;;;;;47.17;15.57;;;1.10;99.90;;;;;;5045208;28;20305;-59
2024/03/01 05:34:32;;;;;;;39.67;15.47;;;1.20;99.90;;;;;;5048084;28;20655;-58
2024/03/01 05:36:58;;;;;;;34.00;15.70;;;1.30;99.90;;;;;;5036730;28;20311;-59
2024/03/01 05:39:23;;;;;;;42.90;16.23;;;1.40;99.90;;;;;;5042667;28;20191;-57
2024/03/01 05:41:49;;;;;;;36.77;15.57;;;1.40;99.90;;;;;;5039207;28;20670;-58
2024/03/01 05:44:16;;;;;;;35.23;15.63;;;1.40;99.90;;;;;;5046875;28;20207;-53
2024/03/01 05:46:42;;;;;;;40.87;16.43;;;1.40;99.90;;;;;;5048479;28;20582;-59
2024/03/01 05:49:12;;;;;;;38.00;15.73;;;1.50;99.90;;;;;;5039015;28;20188;-59
2024/03/01 05:51:38;;;;;;;47.23;16.90;;;1.50;99.90;;;;;;5041791;28;20195;-58
2024/03/01 05:54:04;;;;;;;35.43;15.73;;;1.60;99.90;;;;;;5036905;28;20220;-57
2024/03/01 05:56:30;;;;;;;38.33;15.63;;;1.60;99.90;;;;;;5030687;28;20195;-57
2024/03/01 05:58:56;;;;;;;34.50;15.57;;;1.60;99.90;;;;;;5038901;28;20643;-56
2024/03/01 06:01:26;;;;;;;40.67;16.63;;;1.60;99.90;;;;;;5047820;28;20309;-59
2024/03/01 06:03:51;;;;;;;38.47;16.27;;;1.70;99.90;;;;;;5039020;28;20568;-55
2024/03/01 06:06:20;;;;;;;36.87;16.30;;;1.70;99.90;;;;;;5028939;28;20191;-56
2024/03/01 06:08:47;;;;;;;45.60;15.67;;;1.70;99.90;;;;;;5042319;28;20686;-59
2024/03/01 06:11:12;;;;;;;35.50;14.83;;;1.80;99.90;;;;;;5035586;28;20498;-56
2024/03/01 06:13:38;;;;;;;37.13;15.33;;;1.70;99.90;;;;;;5049308;28;20223;-56
2024/03/01 06:16:05;;;;;;;35.97;15.97;;;1.80;99.90;;;;;;5042411;28;20171;-57
2024/03/01 06:18:30;;;;;;;45.67;16.67;;;1.90;99.90;;;;;;5038186;28;20809;-58
2024/03/01 06:20:56;;;;;;;44.63;17.03;;;1.90;99.90;;;;;;5042247;28;20258;-59
2024/03/01 06:23:22;;;;;;;40.37;16.83;;;1.90;99.90;;;;;;5042206;28;20580;-58
2024/03/01 06:25:47;;;;;;;48.27;18.20;;;1.90;99.90;;;;;;5030320;28;20556;-55
2024/03/01 06:28:13;;;;;;;63.87;23.90;;;2.00;99.90;;;;;;5029999;28;20198;-56
2024/03/01 06:30:38;;;;;;;68.60;23.23;;;2.00;99.90;;;;;;5040691;28;20221;-54
2024/03/01 06:33:04;;;;;;;63.27;21.80;;;2.00;99.90;;;;;;5043702;28;20250;-55
2024/03/01 06:35:30;;;;;;;68.67;21.73;;;2.00;99.90;;;;;;5032317;28;20188;-59
2024/03/01 06:37:56;;;;;;;68.90;22.20;;;2.10;99.90;;;;;;5029198;28;20742;-58
2024/03/01 06:40:22;;;;;;;59.13;21.87;;;2.00;99.90;;;;;;5029659;28;20188;-58
2024/03/01 06:42:47;;;;;;;49.20;19.33;;;2.10;99.90;;;;;;5037885;28;20203;-58
2024/03/01 06:45:13;;;;;;;48.57;19.83;;;2.20;99.90;;;;;;5037656;28;20633;-56
2024/03/01 06:47:40;;;;;;;51.23;18.80;;;2.20;99.90;;;;;;5045572;28;20205;-57
2024/03/01 06:50:08;;;;;;;51.53;19.10;;;2.30;99.90;;;;;;5029684;28;20195;-59
2024/03/01 06:52:34;;;;;;;55.03;18.43;;;2.30;99.90;;;;;;5037663;28;20589;-59
2024/03/01 06:55:00;;;;;;;55.50;19.30;;;2.40;99.90;;;;;;5011386;28;20682;-54
2024/03/01 06:57:26;;;;;;;48.10;18.83;;;2.40;99.90;;;;;;5029162;28;20180;-54
2024/03/01 06:59:51;;;;;;;47.13;18.37;;;2.50;99.90;;;;;;5049133;28;20190;-54
2024/03/01 07:02:17;;;;;;;52.50;19.47;;;2.50;99.90;;;;;;5040780;28;20203;-51
2024/03/01 07:04:42;;;;;;;44.00;17.90;;;2.40;99.90;;;;;;5038165;28;20183;-54
2024/03/01 07:07:08;;;;;;;50.43;18.50;;;2.50;99.90;;;;;;5028607;28;20211;-54
2024/03/01 07:09:34;;;;;;;47.60;18.57;;;2.50;99.90;;;;;;5030202;28;20203;-57
2024/03/01 07:12:00;;;;;;;50.60;18.67;;;2.60;99.90;;;;;;5043586;28;20608;-54
2024/03/01 07:14:26;;;;;;;42.17;16.63;;;2.60;99.90;;;;;;5035418;28;20225;-56
2024/03/01 07:16:52;;;;;;;42.73;17.30;;;2.60;99.90;;;;;;5028819;28;20191;-57
2024/03/01 07:19:17;;;;;;;52.63;20.10;;;2.60;99.90;;;;;;5044703;28;20287;-56
2024/03/01 07:21:43;;;;;;;41.17;18.53;;;2.60;99.90;;;;;;5040529;28;20188;-52
2024/03/01 07:24:09;;;;;;;50.40;19.20;;;2.70;99.90;;;;;;5048818;28;20203;-55
2024/03/01 07:26:34;;;;;;;43.37;17.07;;;2.80;99.90;;;;;;5030245;28;20238;-55
2024/03/01 07:29:00;;;;;;;45.73;18.37;;;2.80;99.90;;;;;;5028309;28;20234;-57
2024/03/01 07:31:26;;;;;;;47.27;19.33;;;2.90;99.90;;;;;;5036945;28;20227;-55
2024/03/01 07:33:51;;;;;;;44.87;17.50;;;3.00;99.90;;;;;;5040935;28;20250;-53
2024/03/01 07:36:17;;;;;;;49.47;19.73;;;3.10;99.90;;;;;;5041022;28;20199;-54
2024/03/01 07:38:43;;;;;;;47.13;19.50;;;3.20;99.90;;;;;;5031321;28;20194;-52
2024/03/01 07:41:08;;;;;;;48.33;18.53;;;3.20;99.90;;;;;;5033940;28;20187;-56
2024/03/01 07:43:34;;;;;;;44.47;18.03;;;3.30;99.90;;;;;;5036509;28;20215;-57
2024/03/01 07:46:00;;;;;;;46.07;19.40;;;3.40;99.90;;;;;;5041895;28;20603;-56
2024/03/01 07:48:25;;;;;;;46.53;19.63;;;3.40;99.90;;;;;;5031567;28;20211;-55
2024/03/01 07:50:51;;;;;;;46.47;19.27;;;3.30;99.90;;;;;;5044632;28;20191;-55
2024/03/01 07:53:17;;;;;;;43.73;18.20;;;3.40;99.90;;;;;;5036178;28;20240;-52
2024/03/01 07:55:42;;;;;;;42.33;17.83;;;3.50;99.90;;;;;;5036161;28;20192;-55
2024/03/01 07:58:08;;;;;;;40.00;16.83;;;3.50;99.90;;;;;;5033887;28;20575;-58
2024/03/01 08:00:34;;;;;;;43.13;18.67;;;3.70;99.90;;;;;;5048182;28;20191;-55
2024/03/01 08:03:07;;;;;;;42.23;17.97;;;3.80;99.90;;;;;;5049508;28;20225;-53
2024/03/01 08:05:38;;;;;;;44.90;18.90;;;3.80;99.90;;;;;;5047432;28;20190;-51
2024/03/01 08:08:05;;;;;;;48.43;18.30;;;3.80;99.90;;;;;;5054926;28;20666;-56
2024/03/01 08:10:33;;;;;;;40.53;16.87;;;3.80;99.90;;;;;;5052168;28;20758;-51
2024/03/01 08:13:01;;;;;;;45.27;17.97;;;3.80;99.90;;;;;;5053449;28;20218;-55
2024/03/01 08:15:35;;;;;;;48.20;18.23;;;3.90;99.90;;;;;;5048760;28;20243;-56
2024/03/01 08:18:07;;;;;;;44.97;17.87;;;3.90;99.90;;;;;;5031449;28;20761;-52
2024/03/01 08:20:58;;;;;;;44.33;19.17;;;3.90;99.90;;;;;;5053042;28;20183;-52
2024/03/01 08:23:26;;;;;;;43.10;18.00;;;3.90;99.90;;;;;;5051568;28;20241;-57
2024/03/01 08:25:52;;;;;;;48.40;18.80;;;4.00;99.90;;;;;;5051878;28;20209;-54
2024/03/01 08:28:25;;;;;;;53.63;20.20;;;4.10;99.90;;;;;;5057333;28;20191;-53
2024/03/01 08:30:51;;;;;;;47.37;18.10;;;4.20;99.90;;;;;;5040261;28;21015;-53
2024/03/01 08:33:18;;;;;;;41.63;17.90;;;4.30;99.90;;;;;;5039206;28;20297;-52
2024/03/01 08:35:45;;;;;;;44.53;18.53;;;4.40;99.90;;;;;;5051702;28;20211;-55
2024/03/01 08:38:38;;;;;;;48.07;19.10;;;4.50;99.90;;;;;;5044592;28;20303;-52
2024/03/01 08:41:04;;;;;;;51.03;20.70;;;4.60;99.90;;;;;;5031750;28;20194;-52
2024/03/01 08:43:30;;;;;;;53.83;24.10;;;4.50;99.90;;;;;;5032343;28;20223;-51
2024/03/01 08:46:01;;;;;;;50.57;21.80;;;4.50;99.90;;;;;;5043334;28;20650;-55
2024/03/01 08:48:33;;;;;;;61.90;26.13;;;4.60;99.90;;;;;;5034030;28;20188;-53
2024/03/01 08:51:00;;;;;;;73.47;31.23;;;4.60;99.90;;;;;;5031558;28;20228;-51
2024/03/01 08:53:56;;;;;;;58.63;26.47;;;4.70;99.90;;;;;;5047582;28;20258;-54
2024/03/01 08:56:23;;;;;;;47.97;19.63;;;4.90;99.90;;;;;;5031060;28;20672;-55
2024/03/01 08:58:49;;;;;;;49.03;20.77;;;5.10;99.90;;;;;;5033903;28;20527;-53
2024/03/01 09:01:41;;;;;;;49.90;19.80;;;5.30;99.90;;;;;;5036053;28;20218;-54
2024/03/01 09:04:19;;;;;;;46.27;19.03;;;5.40;99.90;;;;;;5037269;28;20199;-53
2024/03/01 09:06:55;;;;;;;42.33;18.87;;;5.60;99.90;;;;;;5040141;28;20183;-53
2024/03/01 09:09:23;;;;;;;52.23;20.03;;;5.70;99.90;;;;;;5047342;28;20202;-57
2024/03/01 09:11:50;;;;;;;52.57;19.03;;;5.90;99.90;;;;;;5042457;28;20250;-52
2024/03/01 09:14:27;;;;;;;46.53;19.87;;;6.10;99.90;;;;;;5043783;28;20336;-53
2024/03/01 09:16:54;;;;;;;64.83;23.27;;;5.90;99.90;;;;;;5039684;28;20172;-51
2024/03/01 09:19:22;;;;;;;55.77;21.20;;;6.00;99.90;;;;;;5029614;28;20274;-56
2024/03/01 09:21:48;;;;;;;46.10;18.90;;;6.10;99.90;;;;;;5033008;28;20179;-54
2024/03/01 09:24:16;;;;;;;50.97;19.47;;;6.20;99.90;;;;;;5050049;28;20222;-56
2024/03/01 09:26:42;;;;;;;44.93;19.07;;;6.40;99.90;;;;;;5048073;28;20191;-57
2024/03/01 09:29:18;;;;;;;42.80;18.57;;;6.50;99.90;;;;;;5036478;28;20766;-56
2024/03/01 09:31:43;;;;;;;43.97;19.50;;;6.70;99.90;;;;;;5038645;28;20187;-56
2024/03/01 09:34:10;;;;;;;45.50;19.20;;;6.90;99.90;;;;;;5030401;28;20241;-53
2024/03/01 09:36:36;;;;;;;43.97;18.93;;;7.10;99.90;;;;;;5030249;28;20188;-55
2024/03/01 09:39:05;;;;;;;45.27;20.00;;;7.40;99.90;;;;;;5038219;28;20187;-56
2024/03/01 09:42:09;;;;;;;45.20;18.93;;;7.50;99.90;;;;;;5038851;28;20357;-56
2024/03/01 09:45:01;;;;;;;47.87;19.10;;;7.60;99.90;;;;;;5031846;28;20429;-54
2024/03/01 09:48:11;;;;;;;45.77;18.40;;;7.60;99.90;;;;;;5041496;28;20267;-58
2024/03/01 09:51:13;;;;;;;42.03;16.80;;;7.70;99.90;;;;;;5018922;28;20227;-53
2024/03/01 09:54:04;;;;;;;43.73;17.00;;;7.70;99.90;;;;;;5031405;28;20214;-55
2024/03/01 09:56:40;;;;;;;44.47;17.30;;;7.70;99.90;;;;;;5030924;28;20223;-53
2024/03/01 09:59:16;;;;;;;42.67;16.80;;;7.80;99.90;;;;;;5049626;28;20759;-56
2024/03/01 10:01:47;;;;;;;40.87;17.23;;;8.00;99.90;;;;;;5031141;28;20196;-56
2024/03/01 10:04:46;;;;;;;40.80;16.13;;;8.00;99.90;;;;;;5045247;28;20194;-54
2024/03/01 10:07:28;;;;;;;36.43;16.33;;;8.20;99.90;;;;;;5042477;28;20274;-56
2024/03/01 10:10:26;;;;;;;42.77;17.10;;;8.30;99.90;;;;;;5034113;28;20569;-57
2024/03/01 10:13:13;;;;;;;36.67;16.47;;;8.30;99.90;;;;;;5030349;28;20214;-55
2024/03/01 10:16:03;;;;;;;43.13;17.03;;;8.10;99.90;;;;;;5031228;28;20245;-52
2024/03/01 10:18:41;;;;;;;225.60;87.63;;;8.10;99.90;;;;;;5037406;28;20628;-56
2024/03/01 10:21:46;;;;;;;84.83;31.43;;;8.20;99.90;;;;;;5043795;28;20472;-53
2024/03/01 10:24:31;;;;;;;45.60;17.97;;;8.10;99.90;;;;;;5043238;28;20178;-55
2024/03/01 10:27:06;;;;;;;36.80;16.27;;;8.30;99.90;;;;;;5042044;28;20183;-56
2024/03/01 10:29:50;;;;;;;37.77;14.57;;;8.40;99.90;;;;;;5041405;28;20206;-57
2024/03/01 10:32:48;;;;;;;33.47;14.47;;;8.30;99.90;;;;;;5035542;28;20219;-56
2024/03/01 10:35:19;;;;;;;36.50;16.10;;;8.30;99.90;;;;;;5035277;28;20276;-54
2024/03/01 10:38:13;;;;;;;39.57;16.53;;;8.20;99.90;;;;;;5039901;28;20191;-53
2024/03/01 10:40:47;;;;;;;36.17;15.93;;;8.10;99.90;;;;;;5038856;28;20263;-57
2024/03/01 10:43:31;;;;;;;36.10;15.87;;;8.10;99.90;;;;;;5028862;28;20286;-56
2024/03/01 10:46:15;;;;;;;32.90;15.20;;;8.10;99.90;;;;;;5033785;28;20171;-52
2024/03/01 10:49:17;;;;;;;37.83;15.60;;;8.10;99.90;;;;;;5046514;28;20186;-53
2024/03/01 10:51:54;;;;;;;38.83;15.73;;;8.10;99.90;;;;;;5037286;28;20170;-52
2024/03/01 10:54:23;;;;;;;36.80;15.27;;;8.20;99.90;;;;;;5036596;28;20233;-55
2024/03/01 10:56:50;;;;;;;57.73;24.23;;;8.20;99.90;;;;;;5032392;28;20178;-57
2024/03/01 10:59:31;;;;;;;42.57;16.73;;;8.20;99.90;;;;;;5040217;28;20689;-57
2024/03/01 11:02:04;;;;;;;45.07;19.43;;;8.10;99.90;;;;;;5037191;28;20235;-54
2024/03/01 11:04:52;;;;;;;34.27;16.20;;;8.00;99.90;;;;;;5029673;28;20171;-55
2024/03/01 11:07:18;;;;;;;45.03;17.57;;;8.10;99.90;;;;;;5040350;28;20183;-56
2024/03/01 11:09:55;;;;;;;37.37;16.83;;;7.80;99.90;;;;;;5036989;28;20186;-57
2024/03/01 11:12:39;;;;;;;39.73;17.20;;;7.80;99.90;;;;;;5034162;28;20215;-54
2024/03/01 11:15:13;;;;;;;36.47;15.43;;;7.80;99.90;;;;;;5042531;28;20178;-54
2024/03/01 11:17:41;;;;;;;35.17;16.43;;;7.90;99.90;;;;;;5038207;28;20195;-55
2024/03/01 11:20:13;;;;;;;32.67;14.67;;;8.00;99.90;;;;;;5037160;28;20234;-53
2024/03/01 11:22:45;;;;;;;32.70;15.07;;;7.90;99.90;;;;;;5036435;28;20211;-54
2024/03/01 11:25:14;;;;;;;35.77;15.17;;;8.00;99.90;;;;;;5030244;28;20265;-58
2024/03/01 11:27:59;;;;;;;38.73;14.80;;;8.00;99.90;;;;;;5036384;28;20646;-57
2024/03/01 11:30:30;;;;;;;32.37;14.30;;;8.00;99.90;;;;;;5045528;28;20171;-53
2024/03/01 11:33:01;;;;;;;36.93;15.97;;;8.20;99.90;;;;;;5040776;28;20227;-52
2024/03/01 11:35:45;;;;;;;35.83;16.70;;;8.20;99.90;;;;;;5040104;28;20651;-54
2024/03/01 11:38:34;;;;;;;76.10;27.73;;;8.20;99.90;;;;;;5041984;28;20194;-57
2024/03/01 11:41:26;;;;;;;32.17;14.63;;;8.10;99.90;;;;;;5028586;28;20179;-53
2024/03/01 11:44:04;;;;;;;31.43;15.20;;;8.10;99.90;;;;;;5032421;28;20219;-54
2024/03/01 11:46:49;;;;;;;39.20;13.33;;;8.20;99.90;;;;;;5036254;28;20615;-54
2024/03/01 11:49:30;;;;;;;29.37;13.10;;;8.30;99.90;;;;;;5042531;28;20269;-55
2024/03/01 11:52:22;;;;;;;24.90;12.40;;;8.50;99.90;;;;;;5047994;28;20194;-53
2024/03/01 11:55:12;;;;;;;30.00;13.53;;;8.50;99.90;;;;;;5039157;28;20204;-55
2024/03/01 11:58:00;;;;;;;28.43;12.00;;;8.60;99.90;;;;;;5050122;28;20179;-54
2024/03/01 12:00:37;;;;;;;20.10;9.13;;;8.80;99.90;;;;;;5052661;28;20240;-56
2024/03/01 12:03:12;;;;;;;22.37;9.50;;;9.10;99.90;;;;;;5038878;28;20231;-52
2024/03/01 12:05:40;;;;;;;27.50;12.80;;;9.30;99.90;;;;;;5032307;28;20700;-51
2024/03/01 12:08:24;;;;;;;30.47;12.37;;;9.50;99.90;;;;;;5032005;28;20509;-52
2024/03/01 12:11:20;;;;;;;27.57;12.93;;;9.80;99.90;;;;;;5040864;28;20203;-56
2024/03/01 12:13:53;;;;;;;26.63;11.33;;;10.20;99.90;;;;;;5043046;28;20243;-56
2024/03/01 12:16:46;;;;;;;16.57;8.67;;;10.30;99.90;;;;;;5043896;28;20182;-53
2024/03/01 12:19:26;;;;;;;21.30;8.80;;;10.10;99.90;;;;;;5046488;28;20175;-56
2024/03/01 12:22:08;;;;;;;14.13;7.70;;;10.10;99.90;;;;;;5032058;28;20225;-52
2024/03/01 12:24:37;;;;;;;18.13;8.13;;;9.70;99.90;;;;;;5041712;28;20313;-54
2024/03/01 12:27:03;;;;;;;17.47;7.30;;;9.70;99.90;;;;;;5043111;28;20262;-55
2024/03/01 12:29:44;;;;;;;13.00;6.80;;;9.70;99.90;;;;;;5043419;28;20186;-53
2024/03/01 12:32:22;;;;;;;10.77;5.67;;;9.90;99.90;;;;;;5040284;28;20559;-54
2024/03/01 12:35:13;;;;;;;9.63;5.50;;;9.70;99.90;;;;;;5040190;28;20243;-55
2024/03/01 12:38:10;;;;;;;13.67;5.60;;;9.60;99.90;;;;;;5031065;28;20176;-51
2024/03/01 12:41:12;;;;;;;13.93;5.23;;;9.60;99.90;;;;;;5048445;28;20681;-54
2024/03/01 12:44:02;;;;;;;11.83;5.97;;;9.60;99.90;;;;;;5041215;28;20288;-54
2024/03/01 12:47:01;;;;;;;11.63;5.57;;;9.50;99.90;;;;;;5034971;28;20180;-55
2024/03/01 12:50:01;;;;;;;11.10;6.13;;;9.60;99.90;;;;;;5034929;28;20184;-52
2024/03/01 12:53:06;;;;;;;8.87;4.97;;;9.60;99.90;;;;;;5031320;28;20200;-55
2024/03/01 12:55:39;;;;;;;16.43;5.20;;;9.80;99.90;;;;;;5043415;28;20287;-55
2024/03/01 12:58:39;;;;;;;10.70;5.30;;;9.90;99.90;;;;;;5031037;28;20448;-53